createdAt,value
2019-04-25T00:01:58.358Z,58.70
2019-04-25T00:04:29.096Z,58.70
2019-04-25T00:06:59.498Z,58.50
2019-04-25T00:09:31.844Z,58.20
2019-04-25T00:12:02.745Z,58.40
2019-04-25T00:14:33.356Z,58.10
2019-04-25T00:17:04.081Z,57.50
2019-04-25T00:19:34.462Z,57.80
2019-04-25T00:22:18.412Z,57.70
2019-04-25T00:24:52.030Z,58.00
2019-04-25T00:27:25.038Z,57.90
2019-04-25T00:29:56.108Z,58.30
2019-04-25T00:32:26.738Z,66.40
2019-04-25T00:34:57.089Z,73.40
2019-04-25T00:37:27.892Z,79.50
2019-04-25T00:39:58.285Z,86.00
2019-04-25T00:42:28.955Z,90.70
2019-04-25T00:44:59.359Z,91.80
2019-04-25T00:47:31.266Z,92.80
2019-04-25T00:50:02.573Z,93.40
2019-04-25T00:52:33.334Z,92.20
2019-04-25T00:55:04.587Z,93.20
2019-04-25T00:57:36.380Z,93.90
2019-04-25T01:00:30.671Z,94.40
2019-04-25T01:03:03.324Z,95.20
2019-04-25T01:05:33.847Z,94.20
2019-04-25T01:08:04.583Z,94.60
2019-04-25T01:10:34.959Z,95.70
2019-04-25T01:13:05.478Z,95.70
2019-04-25T01:15:36.353Z,95.60
2019-04-25T01:18:08.677Z,95.30
2019-04-25T01:20:39.218Z,95.30
2019-04-25T01:23:09.588Z,94.90
2019-04-25T01:25:42.682Z,94.80
2019-04-25T01:28:13.243Z,94.60
2019-04-25T01:30:43.969Z,94.40
2019-04-25T01:33:14.634Z,93.90
2019-04-25T01:35:54.277Z,93.50
2019-04-25T01:38:33.524Z,93.60
2019-04-25T01:41:05.896Z,93.40
2019-04-25T01:43:38.314Z,93.00
2019-04-25T01:46:09.317Z,92.70
2019-04-25T01:48:39.741Z,92.60
2019-04-25T01:51:10.774Z,92.60
2019-04-25T01:53:41.794Z,92.20
2019-04-25T01:56:13.539Z,92.60
2019-04-25T01:58:44.677Z,92.40
2019-04-25T02:01:15.386Z,92.30
2019-04-25T02:03:45.802Z,93.10
2019-04-25T02:06:16.898Z,93.00
2019-04-25T02:08:47.269Z,92.70
2019-04-25T02:11:19.715Z,92.60
2019-04-25T02:13:51.315Z,93.40
2019-04-25T02:16:21.850Z,93.70
2019-04-25T02:18:55.062Z,93.90
2019-04-25T02:21:25.138Z,93.70
2019-04-25T02:23:56.603Z,93.70
2019-04-25T02:26:27.393Z,94.00
2019-04-25T02:28:58.448Z,93.70
2019-04-25T02:31:28.842Z,93.30
2019-04-25T02:34:00.721Z,92.90
2019-04-25T02:36:34.505Z,92.00
2019-04-25T02:39:09.193Z,91.80
2019-04-25T02:41:39.716Z,91.70
2019-04-25T02:44:10.810Z,91.70
2019-04-25T02:47:01.038Z,92.30
2019-04-25T02:49:44.580Z,91.10
2019-04-25T02:52:25.181Z,90.80
2019-04-25T02:54:56.917Z,91.30
2019-04-25T02:57:28.107Z,91.70
2019-04-25T03:00:00.165Z,91.70
2019-04-25T03:02:30.989Z,92.50
2019-04-25T03:05:03.984Z,92.80
2019-04-25T03:07:34.721Z,93.10
2019-04-25T03:10:09.790Z,93.30
2019-04-25T03:12:40.671Z,93.30
2019-04-25T03:15:11.087Z,93.40
2019-04-25T03:17:44.409Z,93.50
2019-04-25T03:20:24.949Z,93.60
2019-04-25T03:22:55.700Z,93.10
2019-04-25T03:25:26.105Z,93.10
2019-04-25T03:27:57.448Z,93.10
2019-04-25T03:30:28.369Z,93.70
2019-04-25T03:32:58.771Z,93.40
2019-04-25T03:35:29.879Z,93.60
2019-04-25T03:38:01.570Z,93.20
2019-04-25T03:40:34.049Z,93.30
2019-04-25T03:43:05.107Z,93.70
2019-04-25T03:45:36.730Z,93.70
2019-04-25T03:48:07.573Z,94.10
2019-04-25T03:50:38.421Z,94.00
2019-04-25T03:53:08.788Z,94.20
2019-04-25T03:55:39.531Z,94.50
2019-04-25T03:58:10.906Z,94.80
2019-04-25T04:00:44.741Z,95.00
2019-04-25T04:03:15.458Z,95.00
2019-04-25T04:05:45.802Z,95.20
2019-04-25T04:08:16.212Z,95.40
2019-04-25T04:10:46.955Z,95.30
2019-04-25T04:13:17.325Z,95.60
2019-04-25T04:15:47.672Z,95.50
2019-04-25T04:18:27.058Z,95.50
2019-04-25T04:21:09.012Z,95.50
2019-04-25T04:23:44.074Z,95.40
2019-04-25T04:26:15.706Z,95.50
2019-04-25T04:28:46.196Z,95.50
2019-04-25T04:31:17.084Z,95.40
2019-04-25T04:33:47.570Z,94.20
2019-04-25T04:36:19.009Z,93.90
2019-04-25T04:38:49.924Z,93.70
2019-04-25T04:41:20.688Z,93.50
2019-04-25T04:43:51.106Z,93.70
2019-04-25T04:46:21.979Z,93.70
2019-04-25T04:48:54.023Z,93.80
2019-04-25T04:51:25.326Z,94.00
2019-04-25T04:53:55.969Z,94.30
2019-04-25T04:56:26.350Z,94.30
2019-04-25T04:58:56.993Z,94.30
2019-04-25T05:01:29.120Z,94.20
2019-04-25T05:04:01.158Z,94.10
2019-04-25T05:06:36.418Z,94.20
2019-04-25T05:09:12.476Z,94.10
2019-04-25T05:11:44.164Z,94.00
2019-04-25T05:14:16.135Z,94.10
2019-04-25T05:16:49.414Z,94.20
2019-04-25T05:19:18.690Z,94.20
2019-04-25T05:21:49.061Z,94.00
2019-04-25T05:24:19.757Z,94.20
2019-04-25T05:26:50.104Z,94.30
2019-04-25T05:29:23.260Z,94.10
2019-04-25T05:31:54.275Z,94.10
2019-04-25T05:34:25.958Z,94.20
2019-04-25T05:36:56.793Z,94.10
2019-04-25T05:39:27.222Z,94.10
2019-04-25T05:42:07.593Z,94.10
2019-04-25T05:44:37.663Z,94.20
2019-04-25T05:47:08.086Z,94.40
2019-04-25T05:49:38.445Z,94.50
2019-04-25T05:52:08.839Z,94.30
2019-04-25T05:54:39.187Z,94.00
2019-04-25T05:57:09.563Z,93.40
2019-04-25T05:59:40.721Z,92.80
2019-04-25T06:02:11.398Z,91.90
2019-04-25T06:04:43.559Z,90.80
2019-04-25T06:07:14.560Z,87.30
2019-04-25T06:09:47.272Z,81.80
2019-04-25T06:12:19.857Z,77.90
2019-04-25T06:14:50.754Z,72.50
2019-04-25T06:17:30.056Z,69.80
2019-04-25T06:20:05.998Z,67.10
2019-04-25T06:22:53.281Z,67.60
2019-04-25T06:25:32.111Z,63.70
2019-04-25T06:28:03.692Z,60.70
2019-04-25T06:30:35.254Z,60.80
2019-04-25T06:33:05.991Z,57.70
2019-04-25T06:35:36.820Z,58.80
2019-04-25T06:38:07.563Z,58.00
2019-04-25T06:40:37.894Z,58.80
2019-04-25T06:43:08.329Z,59.30
2019-04-25T06:45:45.995Z,60.40
2019-04-25T06:48:18.004Z,56.50
2019-04-25T06:50:48.715Z,55.50
2019-04-25T06:53:19.077Z,53.20
2019-04-25T06:55:49.765Z,53.80
2019-04-25T06:58:21.413Z,54.00
2019-04-25T07:00:58.846Z,53.70
2019-04-25T07:03:25.760Z,53.80
2019-04-25T07:05:56.657Z,54.00
2019-04-25T07:08:27.797Z,52.30
2019-04-25T07:10:58.524Z,53.80
2019-04-25T07:13:28.886Z,53.50
2019-04-25T07:15:59.248Z,54.70
2019-04-25T07:18:32.434Z,52.40
2019-04-25T07:21:03.346Z,53.60
2019-04-25T07:23:34.651Z,52.60
2019-04-25T07:26:06.937Z,51.40
2019-04-25T07:28:41.864Z,49.50
2019-04-25T07:31:14.996Z,49.10
2019-04-25T07:33:49.643Z,49.60
2019-04-25T07:36:20.466Z,48.50
2019-04-25T07:39:04.893Z,50.00
2019-04-25T07:41:24.200Z,48.10
2019-04-25T07:43:56.210Z,48.50
2019-04-25T07:46:26.575Z,48.70
2019-04-25T07:48:56.914Z,49.70
2019-04-25T07:51:28.253Z,48.50
2019-04-25T07:53:58.618Z,48.70
2019-04-25T07:56:29.415Z,48.40
2019-04-25T07:58:59.748Z,46.00
2019-04-25T08:01:31.105Z,48.30
2019-04-25T08:04:01.468Z,47.70
2019-04-25T08:06:33.421Z,48.40
2019-04-25T08:09:06.648Z,48.10
2019-04-25T08:11:38.221Z,46.80
2019-04-25T08:14:19.652Z,46.50
2019-04-25T08:17:01.409Z,46.00
2019-04-25T08:19:33.277Z,45.90
2019-04-25T08:22:04.234Z,43.30
2019-04-25T08:24:35.946Z,42.00
2019-04-25T08:27:06.824Z,43.30
2019-04-25T08:29:39.277Z,43.00
2019-04-25T08:32:10.680Z,41.40
2019-04-25T08:34:41.408Z,41.20
2019-04-25T08:37:18.871Z,40.00
2019-04-25T08:39:45.213Z,40.10
2019-04-25T08:42:15.631Z,37.90
2019-04-25T08:44:46.509Z,37.90
2019-04-25T08:47:16.964Z,39.80
2019-04-25T08:49:49.603Z,39.00
2019-04-25T08:52:20.658Z,39.00
2019-04-25T08:54:54.308Z,40.00
2019-04-25T08:57:26.719Z,39.00
2019-04-25T09:00:01.715Z,35.10
2019-04-25T09:02:36.065Z,34.60
2019-04-25T09:05:24.408Z,34.50
2019-04-25T09:07:55.000Z,33.10
2019-04-25T09:10:26.127Z,34.50
2019-04-25T09:12:57.550Z,31.40
2019-04-25T09:15:28.205Z,32.20
2019-04-25T09:17:59.122Z,31.90
2019-04-25T09:20:29.775Z,30.80
2019-04-25T09:23:00.739Z,29.80
2019-04-25T09:25:31.350Z,30.50
2019-04-25T09:28:01.722Z,29.80
2019-04-25T09:30:33.982Z,28.40
2019-04-25T09:33:04.700Z,27.60
2019-04-25T09:35:36.255Z,28.40
2019-04-25T09:38:07.123Z,28.00
2019-04-25T09:40:37.855Z,27.70
2019-04-25T09:43:08.549Z,26.80
2019-04-25T09:45:50.051Z,27.10
2019-04-25T09:48:29.316Z,26.70
2019-04-25T09:51:07.016Z,26.80
2019-04-25T09:53:44.706Z,27.20
2019-04-25T09:56:16.431Z,27.50
2019-04-25T09:58:57.826Z,27.20
2019-04-25T10:01:28.177Z,26.30
2019-04-25T10:03:58.546Z,27.40
2019-04-25T10:06:29.254Z,27.10
2019-04-25T10:08:59.690Z,24.60
2019-04-25T10:11:30.314Z,23.60
2019-04-25T10:14:35.318Z,23.80
2019-04-25T10:17:06.013Z,24.20
2019-04-25T10:19:37.741Z,24.20
2019-04-25T10:22:08.961Z,23.10
2019-04-25T10:24:39.768Z,23.70
2019-04-25T10:27:10.530Z,24.50
2019-04-25T10:29:48.227Z,22.70
2019-04-25T10:32:15.080Z,21.10
2019-04-25T10:34:46.287Z,21.60
2019-04-25T10:37:17.048Z,19.80
2019-04-25T10:39:47.414Z,20.90
2019-04-25T10:42:18.539Z,21.10
2019-04-25T10:44:49.265Z,21.70
2019-04-25T10:47:19.647Z,21.70
2019-04-25T10:49:51.579Z,21.30
2019-04-25T10:52:23.471Z,21.30
2019-04-25T10:54:54.395Z,19.30
2019-04-25T10:57:26.411Z,17.20
2019-04-25T11:00:06.385Z,18.10
2019-04-25T11:02:29.169Z,19.40
2019-04-25T11:05:03.409Z,20.10
2019-04-25T11:07:34.088Z,21.40
2019-04-25T11:10:06.268Z,20.40
2019-04-25T11:12:36.606Z,20.00
2019-04-25T11:15:07.039Z,19.50
2019-04-25T11:17:38.190Z,19.50
2019-04-25T11:20:10.567Z,19.00
2019-04-25T11:22:42.381Z,20.40
2019-04-25T11:25:15.014Z,20.00
2019-04-25T11:27:47.353Z,20.80
2019-04-25T11:30:17.763Z,20.50
2019-04-25T11:32:48.163Z,19.80
2019-04-25T11:35:19.025Z,20.30
2019-04-25T11:37:50.985Z,20.60
2019-04-25T11:40:26.350Z,20.00
2019-04-25T11:42:57.079Z,19.20
2019-04-25T11:45:28.141Z,19.00
2019-04-25T11:47:58.500Z,19.10
2019-04-25T11:50:29.402Z,18.10
2019-04-25T11:52:59.801Z,17.20
2019-04-25T11:55:30.168Z,17.90
2019-04-25T11:58:00.660Z,16.70
2019-04-25T12:00:33.795Z,15.90
2019-04-25T12:03:04.807Z,16.50
2019-04-25T12:05:35.752Z,17.50
2019-04-25T12:08:06.969Z,17.50
2019-04-25T12:10:38.863Z,16.80
2019-04-25T12:13:09.590Z,17.60
2019-04-25T12:15:40.232Z,16.60
2019-04-25T12:18:11.125Z,17.20
2019-04-25T12:20:41.465Z,16.50
2019-04-25T12:23:14.302Z,16.90
2019-04-25T12:25:46.246Z,15.90
2019-04-25T12:28:16.689Z,16.20
2019-04-25T12:30:47.964Z,16.30
2019-04-25T12:33:21.477Z,15.70
2019-04-25T12:35:51.952Z,16.60
2019-04-25T12:38:24.471Z,16.40
2019-04-25T12:40:55.340Z,16.30
2019-04-25T12:43:27.424Z,15.80
2019-04-25T12:46:06.097Z,15.60
2019-04-25T12:48:37.049Z,15.70
2019-04-25T12:51:07.483Z,15.30
2019-04-25T12:53:38.419Z,15.60
2019-04-25T12:56:08.746Z,16.30
2019-04-25T12:58:39.144Z,16.30
2019-04-25T13:01:09.777Z,15.40
2019-04-25T13:03:40.704Z,15.40
2019-04-25T13:06:11.750Z,15.50
2019-04-25T13:08:42.111Z,15.80
2019-04-25T13:11:13.953Z,15.30
2019-04-25T13:13:44.812Z,16.30
2019-04-25T13:16:15.739Z,15.90
2019-04-25T13:18:46.137Z,15.00
2019-04-25T13:21:16.580Z,14.70
2019-04-25T13:23:46.951Z,14.70
2019-04-25T13:26:19.389Z,14.70
2019-04-25T13:28:54.036Z,14.60
2019-04-25T13:31:35.611Z,14.60
2019-04-25T13:34:14.160Z,14.60
2019-04-25T13:36:44.648Z,14.70
2019-04-25T13:39:19.843Z,14.70
2019-04-25T13:41:50.188Z,14.60
2019-04-25T13:44:20.565Z,14.90
2019-04-25T13:46:53.208Z,14.70
2019-04-25T13:49:25.017Z,14.70
2019-04-25T13:51:55.477Z,14.70
2019-04-25T13:54:26.645Z,14.70
2019-04-25T13:56:57.309Z,14.70
2019-04-25T13:59:28.313Z,15.40
2019-04-25T14:01:59.363Z,14.70
2019-04-25T14:04:31.460Z,14.70
2019-04-25T14:07:02.439Z,14.70
2019-04-25T14:09:34.676Z,14.40
2019-04-25T14:12:05.797Z,14.70
2019-04-25T14:14:36.439Z,14.80
2019-04-25T14:17:08.518Z,14.30
2019-04-25T14:19:49.707Z,14.80
2019-04-25T14:22:21.027Z,14.80
2019-04-25T14:24:53.999Z,14.20
2019-04-25T14:27:26.284Z,14.80
2019-04-25T14:29:56.702Z,14.90
2019-04-25T14:32:28.917Z,14.90
2019-04-25T14:34:59.598Z,14.30
2019-04-25T14:37:38.379Z,14.50
2019-04-25T14:40:04.046Z,13.80
2019-04-25T14:42:34.850Z,14.00
2019-04-25T14:45:07.569Z,15.00
2019-04-25T14:47:38.232Z,14.20
2019-04-25T14:50:08.862Z,13.90
2019-04-25T14:52:39.243Z,14.30
2019-04-25T14:55:29.719Z,14.90
2019-04-25T14:58:00.752Z,15.00
2019-04-25T15:00:35.770Z,14.20
2019-04-25T15:03:07.122Z,14.20
2019-04-25T15:05:37.508Z,13.80
2019-04-25T15:08:08.391Z,14.30
2019-04-25T15:10:39.477Z,14.10
2019-04-25T15:13:11.613Z,14.30
2019-04-25T15:15:42.509Z,14.10
2019-04-25T15:18:13.316Z,13.70
2019-04-25T15:20:44.366Z,14.40
2019-04-25T15:23:14.996Z,14.00
2019-04-25T15:25:45.861Z,14.90
2019-04-25T15:28:16.201Z,14.30
2019-04-25T15:30:46.570Z,14.00
2019-04-25T15:33:16.952Z,14.10
2019-04-25T15:35:49.327Z,14.80
2019-04-25T15:38:21.302Z,14.80
2019-04-25T15:40:56.306Z,13.70
2019-04-25T15:43:32.039Z,14.20
2019-04-25T15:46:10.583Z,14.50
2019-04-25T15:48:41.263Z,14.70
2019-04-25T15:51:11.992Z,14.70
2019-04-25T15:53:43.044Z,14.70
2019-04-25T15:56:13.410Z,14.70
2019-04-25T15:58:43.794Z,14.80
2019-04-25T16:01:14.487Z,14.70
2019-04-25T16:03:45.247Z,14.70
2019-04-25T16:06:15.883Z,14.70
2019-04-25T16:08:46.391Z,14.70
2019-04-25T16:11:22.821Z,14.70
2019-04-25T16:13:53.520Z,14.70
2019-04-25T16:16:24.521Z,14.60
2019-04-25T16:18:55.143Z,14.60
2019-04-25T16:21:25.480Z,14.60
2019-04-25T16:23:56.337Z,14.50
2019-04-25T16:26:28.040Z,14.60
2019-04-25T16:28:58.500Z,14.50
2019-04-25T16:31:29.547Z,14.50
2019-04-25T16:34:00.816Z,15.10
2019-04-25T16:36:32.319Z,14.40
2019-04-25T16:39:04.000Z,14.30
2019-04-25T16:41:35.151Z,14.80
2019-04-25T16:44:07.514Z,15.30
2019-04-25T16:46:38.357Z,14.80
2019-04-25T16:49:08.739Z,14.20
2019-04-25T16:51:39.462Z,14.70
2019-04-25T16:54:10.190Z,14.10
2019-04-25T16:56:41.699Z,14.20
2019-04-25T16:59:12.962Z,14.70
2019-04-25T17:01:43.710Z,14.90
2019-04-25T17:04:14.427Z,14.30
2019-04-25T17:06:45.911Z,14.80
2019-04-25T17:09:17.050Z,14.60
2019-04-25T17:11:47.880Z,14.90
2019-04-25T17:14:29.361Z,15.40
2019-04-25T17:17:14.153Z,15.10
2019-04-25T17:19:55.329Z,15.80
2019-04-25T17:22:26.765Z,15.60
2019-04-25T17:24:57.123Z,16.10
2019-04-25T17:27:27.493Z,16.30
2019-04-25T17:29:58.198Z,16.60
2019-04-25T17:32:30.692Z,16.50
2019-04-25T17:35:06.497Z,16.50
2019-04-25T17:37:38.891Z,16.80
2019-04-25T17:40:14.111Z,17.10
2019-04-25T17:42:44.788Z,17.10
2019-04-25T17:45:17.106Z,17.40
2019-04-25T17:47:54.571Z,17.40
2019-04-25T17:50:20.686Z,17.70
2019-04-25T17:52:51.407Z,18.10
2019-04-25T17:55:21.779Z,18.40
2019-04-25T17:57:52.846Z,18.60
2019-04-25T18:00:31.043Z,18.90
2019-04-25T18:03:01.382Z,19.30
2019-04-25T18:05:32.337Z,19.90
2019-04-25T18:08:03.043Z,20.50
2019-04-25T18:10:34.334Z,20.30
2019-04-25T18:13:05.883Z,20.30
2019-04-25T18:15:41.763Z,20.20
2019-04-25T18:18:17.145Z,20.10
2019-04-25T18:20:47.506Z,20.10
2019-04-25T18:23:36.610Z,20.00
2019-04-25T18:26:08.703Z,19.90
2019-04-25T18:28:46.656Z,20.30
2019-04-25T18:31:17.226Z,20.80
2019-04-25T18:33:49.214Z,21.20
2019-04-25T18:36:33.153Z,20.80
2019-04-25T18:39:05.454Z,21.10
2019-04-25T18:41:50.018Z,21.20
2019-04-25T18:44:21.191Z,21.60
2019-04-25T18:46:51.602Z,21.50
2019-04-25T18:49:22.318Z,21.80
2019-04-25T18:51:57.912Z,22.40
2019-04-25T18:54:28.049Z,22.50
2019-04-25T18:57:02.797Z,23.00
2019-04-25T18:59:49.591Z,23.20
2019-04-25T19:02:37.534Z,23.40
2019-04-25T19:05:10.835Z,23.80
2019-04-25T19:07:41.546Z,24.10
2019-04-25T19:10:13.715Z,24.10
2019-04-25T19:12:45.174Z,24.20
2019-04-25T19:15:15.942Z,25.10
2019-04-25T19:17:47.304Z,24.80
2019-04-25T19:20:17.816Z,24.90
2019-04-25T19:22:48.548Z,25.10
2019-04-25T19:25:19.306Z,25.10
2019-04-25T19:27:50.984Z,25.40
2019-04-25T19:30:21.659Z,25.70
2019-04-25T19:32:52.419Z,25.90
2019-04-25T19:35:23.052Z,26.10
2019-04-25T19:37:55.459Z,26.10
2019-04-25T19:44:28.435Z,26.50
2019-04-25T19:46:59.137Z,26.60
2019-04-25T19:49:29.771Z,26.80
2019-04-25T19:52:00.725Z,27.20
2019-04-25T19:54:31.401Z,27.00
2019-04-25T19:57:02.047Z,27.10
2019-04-25T19:59:32.807Z,27.00
2019-04-25T20:02:04.774Z,27.00
2019-04-25T20:04:40.346Z,27.30
2019-04-25T20:07:13.085Z,27.80
2019-04-25T20:09:46.908Z,27.50
2019-04-25T20:12:17.652Z,27.90
2019-04-25T20:14:48.005Z,27.60
2019-04-25T20:17:18.738Z,27.80
2019-04-25T20:19:49.804Z,27.80
2019-04-25T20:22:20.543Z,28.00
2019-04-25T20:24:50.916Z,28.20
2019-04-25T20:27:21.649Z,28.10
2019-04-25T20:29:52.758Z,28.70
2019-04-25T20:32:23.694Z,28.70
2019-04-25T20:34:55.205Z,28.60
2019-04-25T20:37:26.223Z,29.00
2019-04-25T20:39:57.235Z,29.20
2019-04-25T20:42:27.957Z,29.30
2019-04-25T20:44:58.650Z,28.90
2019-04-25T20:47:29.264Z,28.80
2019-04-25T20:49:59.645Z,29.10
2019-04-25T20:52:30.813Z,29.10
2019-04-25T20:55:01.473Z,29.10
2019-04-25T20:57:32.229Z,29.10
2019-04-25T21:00:03.222Z,28.80
2019-04-25T21:02:33.860Z,28.60
2019-04-25T21:05:05.049Z,28.70
2019-04-25T21:07:36.072Z,28.70
2019-04-25T21:10:07.275Z,28.20
2019-04-25T21:12:37.641Z,28.30
2019-04-25T21:15:19.441Z,28.10
2019-04-25T21:17:52.286Z,28.40
2019-04-25T21:20:23.350Z,28.30
2019-04-25T21:22:54.080Z,28.50
2019-04-25T21:25:24.859Z,28.20
2019-04-25T21:27:56.570Z,28.10
2019-04-25T21:30:26.956Z,28.20
2019-04-25T21:32:58.060Z,28.40
2019-04-25T21:35:28.849Z,28.50
2019-04-25T21:37:59.707Z,28.50
2019-04-25T21:40:35.169Z,28.70
2019-04-25T21:43:10.196Z,28.90
2019-04-25T21:45:41.422Z,28.90
2019-04-25T21:48:12.420Z,28.90
2019-04-25T21:50:43.407Z,28.90
2019-04-25T21:53:14.164Z,29.30
2019-04-25T21:55:45.541Z,29.40
2019-04-25T21:58:16.630Z,29.70
2019-04-25T22:00:52.359Z,29.80
2019-04-25T22:03:26.786Z,29.90
2019-04-25T22:05:58.623Z,30.00
2019-04-25T22:08:29.071Z,30.00
2019-04-25T22:11:01.053Z,30.00
2019-04-25T22:13:31.961Z,30.00
2019-04-25T22:16:03.838Z,30.20
2019-04-25T22:18:34.480Z,30.10
2019-04-25T22:21:05.008Z,30.10
2019-04-25T22:23:35.744Z,29.90
2019-04-25T22:26:07.043Z,30.00
2019-04-25T22:28:37.774Z,30.10
2019-04-25T22:31:10.005Z,30.10
2019-04-25T22:33:48.069Z,30.30
2019-04-25T22:36:20.833Z,30.30
2019-04-25T22:39:11.126Z,30.40
2019-04-25T22:41:46.579Z,30.30
2019-04-25T22:44:18.140Z,30.40
2019-04-25T22:46:49.224Z,30.50
2019-04-25T22:49:20.880Z,30.40
2019-04-25T22:51:51.214Z,30.60
2019-04-25T22:54:23.276Z,30.60
2019-04-25T22:56:54.059Z,30.80
2019-04-25T22:59:24.696Z,30.60
2019-04-25T23:01:57.114Z,30.50
2019-04-25T23:04:29.422Z,30.70
2019-04-25T23:07:02.411Z,30.40
2019-04-25T23:09:34.544Z,30.60
2019-04-25T23:12:06.674Z,30.70
2019-04-25T23:14:37.776Z,30.90
2019-04-25T23:17:09.384Z,31.00
2019-04-25T23:19:40.143Z,31.30
2019-04-25T23:22:11.469Z,31.40
2019-04-25T23:24:46.893Z,31.90
2019-04-25T23:27:19.523Z,32.40
2019-04-25T23:29:50.200Z,32.50
2019-04-25T23:32:20.785Z,32.90
2019-04-25T23:34:51.698Z,32.90
2019-04-25T23:37:22.426Z,32.90
2019-04-25T23:39:53.211Z,32.80
2019-04-25T23:42:23.571Z,33.60
2019-04-25T23:44:54.483Z,33.30
2019-04-25T23:47:24.843Z,33.60
2019-04-25T23:49:55.699Z,33.80
2019-04-25T23:52:26.883Z,33.90
2019-04-25T23:54:57.609Z,34.10
2019-04-25T23:57:27.942Z,34.00
2019-04-25T23:59:59.074Z,34.20
